Terminal Aerodrome Forecast
Issued by NWS

Home | Current Version | Previous Version | Text Only | Print | Product List | Glossary On
Versions: 1 2 3 4 5 6 7 8 9 10 11 12 13 14 15 16 17 18 19
000
FTUS46 KPDT 250100 AAB
TAFALW
TAF AMD
KALW 250131Z 2502/2524 18011KT P6SM VCSH SCT010 BKN060
     FM250400 20008KT P6SM SCT050 BKN070
     FM251800 22007KT P6SM BKN050=

USA.gov is the U.S. government's official web portal to all federal, state and local government web resources and services.